createdAt,value
2023-01-29T00:01:57.746Z,10.25
2023-01-29T00:04:24.905Z,25.85
2023-01-29T00:06:51.944Z,7.95
2023-01-29T00:09:19.132Z,8.45
2023-01-29T00:11:46.243Z,7.88
2023-01-29T00:14:13.523Z,5.65
2023-01-29T00:16:40.687Z,9.45
2023-01-29T00:19:07.905Z,12.00
2023-01-29T00:21:35.194Z,7.57
2023-01-29T00:24:02.305Z,7.32
2023-01-29T00:26:29.497Z,6.05
2023-01-29T00:28:57.880Z,6.90
2023-01-29T00:31:26.464Z,5.45
2023-01-29T00:33:53.791Z,5.10
2023-01-29T00:36:22.230Z,6.22
2023-01-29T00:38:58.862Z,6.50
2023-01-29T00:41:50.165Z,4.97
2023-01-29T00:44:36.820Z,7.30
2023-01-29T00:47:05.294Z,9.38
2023-01-29T00:49:32.312Z,5.20
2023-01-29T00:52:18.079Z,7.93
2023-01-29T00:54:45.124Z,6.22
2023-01-29T00:57:12.166Z,5.97
2023-01-29T00:59:39.155Z,7.75
2023-01-29T01:02:24.665Z,4.60
2023-01-29T01:04:51.718Z,6.47
2023-01-29T01:07:18.791Z,5.30
2023-01-29T01:10:04.456Z,6.82
2023-01-29T01:12:32.585Z,4.97
2023-01-29T01:14:59.686Z,4.93
2023-01-29T01:17:26.749Z,4.88
2023-01-29T01:19:53.926Z,5.40
2023-01-29T01:22:21.051Z,6.20
2023-01-29T01:24:48.291Z,7.90
2023-01-29T01:27:15.515Z,5.93
2023-01-29T01:29:42.590Z,6.50
2023-01-29T01:32:09.671Z,8.25
2023-01-29T01:34:36.698Z,5.03
2023-01-29T01:37:03.764Z,5.55
2023-01-29T01:39:30.836Z,6.47
2023-01-29T01:41:57.992Z,4.95
2023-01-29T01:44:54.951Z,6.78
2023-01-29T01:47:35.433Z,9.02
2023-01-29T01:50:15.733Z,5.85
2023-01-29T01:52:48.120Z,7.50
2023-01-29T01:55:18.820Z,6.30
2023-01-29T01:57:50.922Z,6.32
2023-01-29T02:00:20.373Z,6.93
2023-01-29T02:03:07.320Z,8.43
2023-01-29T02:05:55.118Z,5.35
2023-01-29T02:09:21.610Z,7.47
2023-01-29T02:11:48.703Z,8.10
2023-01-29T02:14:16.501Z,7.85
2023-01-29T02:16:43.572Z,5.45
2023-01-29T02:19:23.512Z,6.35
2023-01-29T02:22:09.304Z,4.60
2023-01-29T02:24:45.734Z,6.18
2023-01-29T02:27:20.854Z,6.70
2023-01-29T02:29:56.807Z,6.07
2023-01-29T02:33:02.591Z,6.03
2023-01-29T02:35:37.851Z,9.15
2023-01-29T02:38:22.718Z,7.03
2023-01-29T02:41:16.391Z,6.30
2023-01-29T02:44:00.360Z,8.50
2023-01-29T02:46:41.649Z,6.95
2023-01-29T02:49:12.374Z,7.45
2023-01-29T02:51:50.428Z,10.93
2023-01-29T02:54:30.760Z,5.93
2023-01-29T02:57:09.065Z,6.22
2023-01-29T02:59:46.277Z,7.28
2023-01-29T03:02:22.796Z,8.38
2023-01-29T03:05:00.185Z,6.47
2023-01-29T03:07:45.078Z,6.90
2023-01-29T03:10:18.329Z,7.07
2023-01-29T03:12:50.255Z,7.07
2023-01-29T03:15:27.007Z,7.70
2023-01-29T03:18:07.731Z,8.20
2023-01-29T03:20:48.295Z,8.57
2023-01-29T03:23:47.653Z,8.65
2023-01-29T03:26:36.807Z,6.45
2023-01-29T03:29:23.693Z,5.10
2023-01-29T03:32:04.533Z,8.65
2023-01-29T03:34:39.196Z,5.35
2023-01-29T03:37:11.291Z,6.90
2023-01-29T03:39:38.334Z,8.32
2023-01-29T03:42:10.664Z,9.63
2023-01-29T03:44:55.494Z,6.70
2023-01-29T03:47:33.355Z,5.00
2023-01-29T03:50:07.709Z,7.35
2023-01-29T03:52:57.323Z,6.07
2023-01-29T03:55:36.294Z,6.95
2023-01-29T03:58:32.200Z,7.38
2023-01-29T04:01:11.479Z,7.25
2023-01-29T04:04:04.410Z,5.55
2023-01-29T04:06:36.193Z,3.35
2023-01-29T04:09:14.647Z,4.43
2023-01-29T04:11:50.587Z,6.60
2023-01-29T04:14:18.641Z,5.15
2023-01-29T04:16:51.768Z,3.55
2023-01-29T04:19:18.866Z,3.53
2023-01-29T04:21:49.493Z,4.00
2023-01-29T04:24:17.336Z,3.42
2023-01-29T04:27:07.294Z,3.53
2023-01-29T04:29:38.618Z,3.78
2023-01-29T04:32:11.341Z,5.40
2023-01-29T04:34:57.159Z,4.10
2023-01-29T04:37:42.437Z,3.20
2023-01-29T04:40:32.599Z,4.80
2023-01-29T04:43:15.202Z,4.22
2023-01-29T04:46:18.332Z,3.75
2023-01-29T04:49:06.926Z,4.68
2023-01-29T04:51:52.427Z,6.28
2023-01-29T04:54:37.490Z,5.22
2023-01-29T04:57:07.214Z,7.82
2023-01-29T04:59:41.786Z,6.63
2023-01-29T05:02:12.256Z,6.13
2023-01-29T05:04:41.965Z,4.85
2023-01-29T05:07:14.782Z,4.95
2023-01-29T05:09:45.352Z,6.30
2023-01-29T05:12:14.774Z,5.22
2023-01-29T05:14:44.508Z,5.55
2023-01-29T05:17:19.001Z,6.15
2023-01-29T05:19:47.203Z,6.00
2023-01-29T05:22:17.993Z,7.90
2023-01-29T05:24:46.680Z,7.47
2023-01-29T05:27:39.433Z,4.72
2023-01-29T05:30:07.173Z,6.13
2023-01-29T05:32:34.270Z,6.53
2023-01-29T05:35:01.354Z,4.80
2023-01-29T05:37:28.448Z,7.85
2023-01-29T05:39:55.512Z,7.60
2023-01-29T05:42:22.580Z,5.93
2023-01-29T05:44:49.565Z,7.10
2023-01-29T05:47:20.490Z,7.28
2023-01-29T05:49:47.541Z,6.40
2023-01-29T05:52:14.603Z,4.65
2023-01-29T05:54:41.666Z,5.72
2023-01-29T05:57:08.723Z,5.57
2023-01-29T05:59:35.756Z,6.53
2023-01-29T06:02:02.805Z,6.38
2023-01-29T06:04:29.862Z,3.80
2023-01-29T06:06:56.941Z,6.53
2023-01-29T06:09:23.940Z,8.73
2023-01-29T06:11:50.979Z,11.05
2023-01-29T06:14:17.966Z,18.55
2023-01-29T06:16:44.920Z,12.80
2023-01-29T06:19:11.945Z,12.13
2023-01-29T06:21:38.999Z,12.60
2023-01-29T06:24:06.370Z,13.13
2023-01-29T06:26:33.511Z,10.90
2023-01-29T06:29:00.528Z,13.07
2023-01-29T06:31:38.480Z,10.00
2023-01-29T06:34:07.780Z,8.75
2023-01-29T06:36:34.984Z,9.40
2023-01-29T06:39:02.545Z,7.47
2023-01-29T06:41:29.825Z,5.60
2023-01-29T06:43:56.871Z,7.45
2023-01-29T06:46:23.873Z,5.68
2023-01-29T06:48:51.032Z,7.53
2023-01-29T06:51:18.286Z,5.60
2023-01-29T06:53:46.532Z,6.50
2023-01-29T06:56:14.150Z,8.23
2023-01-29T06:58:41.886Z,14.77
2023-01-29T07:01:15.488Z,15.45
2023-01-29T07:03:52.469Z,6.03
2023-01-29T07:06:20.196Z,7.60
2023-01-29T07:08:47.347Z,12.57
2023-01-29T07:11:14.461Z,7.07
2023-01-29T07:13:41.516Z,8.38
2023-01-29T07:16:08.598Z,11.80
2023-01-29T07:18:35.831Z,9.15
2023-01-29T07:21:07.119Z,8.70
2023-01-29T07:23:35.110Z,8.40
2023-01-29T07:26:04.837Z,7.65
2023-01-29T07:28:32.109Z,10.15
2023-01-29T07:30:59.702Z,10.30
2023-01-29T07:33:27.180Z,8.55
2023-01-29T07:35:54.168Z,6.15
2023-01-29T07:38:21.342Z,8.35
2023-01-29T07:40:49.118Z,6.00
2023-01-29T07:43:17.027Z,7.10
2023-01-29T07:45:44.050Z,7.72
2023-01-29T07:48:13.126Z,9.35
2023-01-29T07:50:40.694Z,5.70
2023-01-29T07:53:07.884Z,6.53
2023-01-29T07:55:34.950Z,8.20
2023-01-29T07:58:03.560Z,5.40
2023-01-29T08:00:32.399Z,6.40
2023-01-29T08:03:07.448Z,8.77
2023-01-29T08:05:35.693Z,9.15
2023-01-29T08:08:07.091Z,8.30
2023-01-29T08:10:36.408Z,10.10
2023-01-29T08:13:04.701Z,7.15
2023-01-29T08:15:32.876Z,8.18
2023-01-29T08:18:02.582Z,8.07
2023-01-29T08:20:29.718Z,6.75
2023-01-29T08:23:05.300Z,8.82
2023-01-29T08:25:33.212Z,9.75
2023-01-29T08:28:01.303Z,6.47
2023-01-29T08:30:31.088Z,9.25
2023-01-29T08:32:58.919Z,6.00
2023-01-29T08:35:27.092Z,13.40
2023-01-29T08:37:59.663Z,8.80
2023-01-29T08:40:32.735Z,7.18
2023-01-29T08:43:02.532Z,10.75
2023-01-29T08:45:31.631Z,9.60
2023-01-29T08:47:58.690Z,8.88
2023-01-29T08:50:25.724Z,7.55
2023-01-29T08:52:57.172Z,9.60
2023-01-29T08:55:24.174Z,9.02
2023-01-29T08:57:51.259Z,5.70
2023-01-29T09:00:18.928Z,8.88
2023-01-29T09:02:46.170Z,8.18
2023-01-29T09:05:13.223Z,8.18
2023-01-29T09:07:40.281Z,10.60
2023-01-29T09:10:08.262Z,10.48
2023-01-29T09:12:35.458Z,7.03
2023-01-29T09:15:02.513Z,9.93
2023-01-29T09:17:29.484Z,7.95
2023-01-29T09:19:56.500Z,8.05
2023-01-29T09:22:23.485Z,7.90
2023-01-29T09:24:50.473Z,7.45
2023-01-29T09:27:17.529Z,7.85
2023-01-29T09:29:44.533Z,7.28
2023-01-29T09:32:11.608Z,8.82
2023-01-29T09:34:38.589Z,7.32
2023-01-29T09:37:05.688Z,8.90
2023-01-29T09:39:32.701Z,11.55
2023-01-29T09:42:48.714Z,8.25
2023-01-29T09:45:21.987Z,10.18
2023-01-29T09:47:49.436Z,13.57
2023-01-29T09:50:30.881Z,7.05
2023-01-29T09:53:07.160Z,8.60
2023-01-29T09:55:39.687Z,7.68
2023-01-29T09:58:23.705Z,7.75
2023-01-29T10:01:11.157Z,8.85
2023-01-29T10:04:14.912Z,6.45
2023-01-29T10:06:53.665Z,9.18
2023-01-29T10:09:30.451Z,8.35
2023-01-29T10:12:15.990Z,10.13
2023-01-29T10:14:57.121Z,6.70
2023-01-29T10:17:45.459Z,6.03
2023-01-29T10:20:28.974Z,6.43
2023-01-29T10:23:23.807Z,6.50
2023-01-29T10:25:50.927Z,10.43
2023-01-29T10:28:24.385Z,8.43
2023-01-29T10:30:56.477Z,10.05
2023-01-29T10:34:01.435Z,8.55
2023-01-29T10:36:45.273Z,10.55
2023-01-29T10:39:26.114Z,9.02
2023-01-29T10:42:31.417Z,7.53
2023-01-29T10:45:24.551Z,8.50
2023-01-29T10:48:17.751Z,7.78
2023-01-29T10:50:52.514Z,11.93
2023-01-29T10:53:40.377Z,8.98
2023-01-29T10:56:23.657Z,8.90
2023-01-29T10:59:05.573Z,6.95
2023-01-29T11:01:33.398Z,7.75
2023-01-29T11:04:03.484Z,7.18
2023-01-29T11:06:36.221Z,7.65
2023-01-29T11:09:21.019Z,8.43
2023-01-29T11:11:53.366Z,7.50
2023-01-29T11:14:57.182Z,8.13
2023-01-29T11:17:26.427Z,11.40
2023-01-29T11:19:58.185Z,7.03
2023-01-29T11:22:28.257Z,8.30
2023-01-29T11:25:18.922Z,7.60
2023-01-29T11:27:55.363Z,6.72
2023-01-29T11:30:24.887Z,10.80
2023-01-29T11:33:12.980Z,8.95
2023-01-29T11:35:40.213Z,8.77
2023-01-29T11:38:18.659Z,10.32
2023-01-29T11:40:46.454Z,8.23
2023-01-29T11:43:32.667Z,9.02
2023-01-29T11:46:11.917Z,10.98
2023-01-29T11:48:59.133Z,9.02
2023-01-29T11:51:33.900Z,11.43
2023-01-29T11:54:04.207Z,14.63
2023-01-29T11:56:44.004Z,15.02
2023-01-29T11:59:44.754Z,9.88
2023-01-29T12:02:26.816Z,7.07
2023-01-29T12:04:57.522Z,10.00
2023-01-29T12:07:25.241Z,10.40
2023-01-29T12:09:58.232Z,8.65
2023-01-29T12:12:33.216Z,8.30
2023-01-29T12:15:15.002Z,9.73
2023-01-29T12:17:45.947Z,7.72
2023-01-29T12:20:23.126Z,6.82
2023-01-29T12:23:27.223Z,7.30
2023-01-29T12:25:59.211Z,9.52
2023-01-29T12:28:40.896Z,8.93
2023-01-29T12:31:24.840Z,11.45
2023-01-29T12:34:05.175Z,9.00
2023-01-29T12:36:53.542Z,8.65
2023-01-29T12:39:21.841Z,11.00
2023-01-29T12:42:06.156Z,12.93
2023-01-29T12:44:44.088Z,8.05
2023-01-29T12:47:21.034Z,9.18
2023-01-29T12:49:52.383Z,9.07
2023-01-29T12:52:28.922Z,9.18
2023-01-29T12:55:03.101Z,8.30
2023-01-29T12:57:55.977Z,10.82
2023-01-29T13:00:40.514Z,7.45
2023-01-29T13:03:25.915Z,10.60
2023-01-29T13:06:04.358Z,10.23
2023-01-29T13:08:38.823Z,10.43
2023-01-29T13:11:36.061Z,8.90
2023-01-29T13:14:29.092Z,11.20
2023-01-29T13:17:07.928Z,10.55
2023-01-29T13:19:41.101Z,11.32
2023-01-29T13:22:22.957Z,9.32
2023-01-29T13:25:03.635Z,11.43
2023-01-29T13:27:34.601Z,15.23
2023-01-29T13:30:02.459Z,10.27
2023-01-29T13:32:32.709Z,11.05
2023-01-29T13:35:13.745Z,13.68
2023-01-29T13:37:55.230Z,8.63
2023-01-29T13:40:26.958Z,10.95
2023-01-29T13:42:57.309Z,14.55
2023-01-29T13:45:34.324Z,12.77
2023-01-29T13:48:37.392Z,11.82
2023-01-29T13:51:20.895Z,11.35
2023-01-29T13:54:09.262Z,8.50
2023-01-29T13:57:05.721Z,9.55
2023-01-29T13:59:53.923Z,8.52
2023-01-29T14:02:27.332Z,10.80
2023-01-29T14:05:29.538Z,12.20
2023-01-29T14:08:03.868Z,13.82
2023-01-29T14:10:33.910Z,10.73
2023-01-29T14:13:04.319Z,9.45
2023-01-29T14:15:34.603Z,12.13
2023-01-29T14:18:06.564Z,10.15
2023-01-29T14:20:47.053Z,8.77
2023-01-29T14:23:36.345Z,8.68
2023-01-29T14:26:06.669Z,10.52
2023-01-29T14:28:36.007Z,14.02
2023-01-29T14:31:04.582Z,9.57
2023-01-29T14:33:42.552Z,10.93
2023-01-29T14:36:14.166Z,13.27
2023-01-29T14:38:49.129Z,16.90
2023-01-29T14:41:30.172Z,11.20
2023-01-29T14:44:35.153Z,14.38
2023-01-29T14:47:03.017Z,23.73
2023-01-29T14:50:29.350Z,17.70
2023-01-29T14:53:19.061Z,10.15
2023-01-29T14:56:01.159Z,14.65
2023-01-29T14:59:04.850Z,12.45
2023-01-29T15:01:38.804Z,12.20
2023-01-29T15:04:37.690Z,17.55
2023-01-29T15:07:18.747Z,23.65
2023-01-29T15:10:22.015Z,13.82
2023-01-29T15:13:03.806Z,13.40
2023-01-29T15:15:43.192Z,9.02
2023-01-29T15:18:19.371Z,12.77
2023-01-29T15:20:46.978Z,11.45
2023-01-29T15:23:34.696Z,15.80
2023-01-29T15:26:04.819Z,18.02
2023-01-29T15:28:34.799Z,11.07
2023-01-29T15:31:05.301Z,13.20
2023-01-29T15:33:36.263Z,14.68
2023-01-29T15:36:07.990Z,15.07
2023-01-29T15:38:35.769Z,13.70
2023-01-29T15:41:18.816Z,10.88
2023-01-29T15:43:49.763Z,10.90
2023-01-29T15:46:39.808Z,12.88
2023-01-29T15:49:10.732Z,10.25
2023-01-29T15:51:39.609Z,8.80
2023-01-29T15:54:15.701Z,9.60
2023-01-29T15:56:52.525Z,7.95
2023-01-29T15:59:25.339Z,16.23
2023-01-29T16:01:54.658Z,11.18
2023-01-29T16:04:27.608Z,14.45
2023-01-29T16:06:56.545Z,12.75
2023-01-29T16:09:28.152Z,9.85
2023-01-29T16:11:59.070Z,9.93
2023-01-29T16:14:28.747Z,12.43
2023-01-29T16:16:57.942Z,11.05
2023-01-29T16:19:29.789Z,15.07
2023-01-29T16:22:05.998Z,12.57
2023-01-29T16:24:37.233Z,12.50
2023-01-29T16:27:15.484Z,14.90
2023-01-29T16:29:45.044Z,19.60
2023-01-29T16:32:14.854Z,18.13
2023-01-29T16:34:48.885Z,21.65
2023-01-29T16:37:36.924Z,24.65
2023-01-29T16:40:36.045Z,25.08
2023-01-29T16:43:22.797Z,19.13
2023-01-29T16:46:06.943Z,20.80
2023-01-29T16:48:35.888Z,20.67
2023-01-29T16:51:14.360Z,19.25
2023-01-29T16:53:57.567Z,13.43
2023-01-29T16:56:33.108Z,10.88
2023-01-29T16:59:03.286Z,13.60
2023-01-29T17:01:32.223Z,12.05
2023-01-29T17:04:11.968Z,75.13
2023-01-29T17:06:43.268Z,16.00
2023-01-29T17:09:23.431Z,44.35
2023-01-29T17:12:00.713Z,25.35
2023-01-29T17:14:32.225Z,16.95
2023-01-29T17:17:07.910Z,20.60
2023-01-29T17:19:36.319Z,12.63
2023-01-29T17:22:08.430Z,17.65
2023-01-29T17:24:36.365Z,15.52
2023-01-29T17:27:04.418Z,14.90
2023-01-29T17:29:32.450Z,16.63
2023-01-29T17:32:03.937Z,19.75
2023-01-29T17:34:32.017Z,15.45
2023-01-29T17:37:01.059Z,16.92
2023-01-29T17:39:29.090Z,15.77
2023-01-29T17:42:02.023Z,44.70
2023-01-29T17:44:31.344Z,25.25
2023-01-29T17:46:59.453Z,21.60
2023-01-29T17:49:30.046Z,18.27
2023-01-29T17:51:58.656Z,16.83
2023-01-29T17:54:28.934Z,22.85
2023-01-29T17:56:57.180Z,24.80
2023-01-29T17:59:28.557Z,21.85
2023-01-29T18:01:56.772Z,22.08
2023-01-29T18:04:24.918Z,26.73
2023-01-29T18:06:53.744Z,33.83
2023-01-29T18:09:22.205Z,40.35
2023-01-29T18:11:52.384Z,49.22
2023-01-29T18:14:21.107Z,66.65
2023-01-29T18:16:48.960Z,64.03
2023-01-29T18:19:31.788Z,46.97
2023-01-29T18:22:00.335Z,30.60
2023-01-29T18:24:28.225Z,53.13
2023-01-29T18:26:55.834Z,76.88
2023-01-29T18:29:23.888Z,49.63
2023-01-29T18:31:51.357Z,36.05
2023-01-29T18:34:18.883Z,47.80
2023-01-29T18:36:48.295Z,54.10
2023-01-29T18:39:17.152Z,35.25
2023-01-29T18:41:45.165Z,26.52
2023-01-29T18:44:12.956Z,19.05
2023-01-29T18:46:40.964Z,25.10
2023-01-29T18:49:08.807Z,20.65
2023-01-29T18:51:37.038Z,21.85
2023-01-29T18:54:07.533Z,30.63
2023-01-29T18:56:35.476Z,25.63
2023-01-29T18:59:05.589Z,23.05
2023-01-29T19:01:34.929Z,21.48
2023-01-29T19:04:02.751Z,19.38
2023-01-29T19:06:31.059Z,24.42
2023-01-29T19:09:04.044Z,33.70
2023-01-29T19:11:32.221Z,21.27
2023-01-29T19:14:00.301Z,30.40
2023-01-29T19:16:28.508Z,24.65
2023-01-29T19:18:57.724Z,24.40
2023-01-29T19:21:25.548Z,15.93
2023-01-29T19:23:54.907Z,20.75
2023-01-29T19:26:22.454Z,33.67
2023-01-29T19:28:50.311Z,30.05
2023-01-29T19:31:19.439Z,30.70
2023-01-29T19:33:49.297Z,38.25
2023-01-29T19:36:17.992Z,43.60
2023-01-29T19:38:45.968Z,47.92
2023-01-29T19:41:14.154Z,30.65
2023-01-29T19:43:44.613Z,31.48
2023-01-29T19:46:13.515Z,32.10
2023-01-29T19:48:41.150Z,28.55
2023-01-29T19:51:11.701Z,31.25
2023-01-29T19:53:41.591Z,34.28
2023-01-29T19:56:12.548Z,30.77
2023-01-29T19:58:42.018Z,28.98
2023-01-29T20:01:22.741Z,28.10
2023-01-29T20:03:55.322Z,28.73
2023-01-29T20:06:31.764Z,26.90
2023-01-29T20:09:02.785Z,29.38
2023-01-29T20:11:32.070Z,27.85
2023-01-29T20:14:03.380Z,18.92
2023-01-29T20:16:32.664Z,24.60
2023-01-29T20:19:13.701Z,36.00
2023-01-29T20:21:45.480Z,46.17
2023-01-29T20:24:15.297Z,39.28
2023-01-29T20:26:43.282Z,31.05
2023-01-29T20:29:12.218Z,21.33
2023-01-29T20:31:39.992Z,19.77
2023-01-29T20:34:07.990Z,23.48
2023-01-29T20:36:35.677Z,24.08
2023-01-29T20:39:03.680Z,22.58
2023-01-29T20:41:33.379Z,23.65
2023-01-29T20:44:01.392Z,28.85
2023-01-29T20:46:29.090Z,40.88
2023-01-29T20:48:57.348Z,29.60
2023-01-29T20:51:25.252Z,27.15
2023-01-29T20:53:53.289Z,29.45
2023-01-29T20:56:26.992Z,30.05
2023-01-29T20:59:04.647Z,48.38
2023-01-29T21:01:32.051Z,25.73
2023-01-29T21:04:03.032Z,21.50
2023-01-29T21:06:30.853Z,22.80
2023-01-29T21:08:58.643Z,25.73
2023-01-29T21:11:26.686Z,21.02
2023-01-29T21:13:58.054Z,24.17
2023-01-29T21:16:27.575Z,19.55
2023-01-29T21:19:00.047Z,20.00
2023-01-29T21:21:27.715Z,22.98
2023-01-29T21:23:55.664Z,16.67
2023-01-29T21:26:24.194Z,27.25
2023-01-29T21:28:51.544Z,19.88
2023-01-29T21:31:20.824Z,15.93
2023-01-29T21:33:48.192Z,15.50
2023-01-29T21:36:15.400Z,15.38
2023-01-29T21:38:43.851Z,18.52
2023-01-29T21:41:11.272Z,21.65
2023-01-29T21:43:39.546Z,17.13
2023-01-29T21:46:12.384Z,18.38
2023-01-29T21:48:40.408Z,18.83
2023-01-29T21:51:08.205Z,16.38
2023-01-29T21:53:37.177Z,14.85
2023-01-29T21:56:05.571Z,17.23
2023-01-29T21:58:32.979Z,15.30
2023-01-29T22:01:35.126Z,23.55
2023-01-29T22:03:47.772Z,19.05
2023-01-29T22:06:15.517Z,15.93
2023-01-29T22:08:42.589Z,15.13
2023-01-29T22:11:10.186Z,15.45
2023-01-29T22:13:37.408Z,15.18
2023-01-29T22:16:06.141Z,23.38
2023-01-29T22:18:33.414Z,20.77
2023-01-29T22:21:03.157Z,19.85
2023-01-29T22:23:30.988Z,20.33
2023-01-29T22:26:05.774Z,22.83
2023-01-29T22:28:33.020Z,15.95
2023-01-29T22:31:04.659Z,16.35
2023-01-29T22:33:33.390Z,22.23
2023-01-29T22:36:01.275Z,19.80
2023-01-29T22:38:28.377Z,18.75
2023-01-29T22:40:57.323Z,14.38
2023-01-29T22:43:26.166Z,17.33
2023-01-29T22:45:53.164Z,14.68
2023-01-29T22:48:20.142Z,16.83
2023-01-29T22:50:54.001Z,17.80
2023-01-29T22:53:21.009Z,18.95
2023-01-29T22:55:55.705Z,25.42
2023-01-29T22:58:22.739Z,18.65
2023-01-29T23:00:52.813Z,19.38
2023-01-29T23:03:19.818Z,24.58
2023-01-29T23:05:46.777Z,25.02
2023-01-29T23:08:13.760Z,20.85
2023-01-29T23:10:40.794Z,18.98
2023-01-29T23:13:07.757Z,21.08
2023-01-29T23:15:34.718Z,24.58
2023-01-29T23:18:01.798Z,26.50
2023-01-29T23:20:28.810Z,27.55
2023-01-29T23:22:56.177Z,28.73
2023-01-29T23:25:43.421Z,27.35
2023-01-29T23:28:10.498Z,26.88
2023-01-29T23:30:37.523Z,25.10
2023-01-29T23:33:04.776Z,32.58
2023-01-29T23:35:31.809Z,33.13
2023-01-29T23:37:58.804Z,29.58
2023-01-29T23:40:25.809Z,36.20
2023-01-29T23:42:52.786Z,37.15
2023-01-29T23:45:19.829Z,38.60
2023-01-29T23:47:46.823Z,38.63
2023-01-29T23:50:13.779Z,40.88
2023-01-29T23:52:40.863Z,39.53
2023-01-29T23:55:08.260Z,37.33
2023-01-29T23:57:35.311Z,35.00
